createdAt,value
2022-10-23T00:01:50.376Z,3.90
2022-10-23T00:04:21.597Z,3.55
2022-10-23T00:06:50.659Z,4.32
2022-10-23T00:09:19.716Z,4.25
2022-10-23T00:11:49.876Z,3.80
2022-10-23T00:14:19.558Z,4.00
2022-10-23T00:16:47.914Z,4.32
2022-10-23T00:19:16.244Z,3.95
2022-10-23T00:21:46.133Z,4.03
2022-10-23T00:24:14.604Z,4.15
2022-10-23T00:26:43.177Z,4.53
2022-10-23T00:29:13.655Z,4.28
2022-10-23T00:31:42.377Z,4.20
2022-10-23T00:34:14.676Z,3.67
2022-10-23T00:36:50.431Z,3.47
2022-10-23T00:39:22.085Z,4.13
2022-10-23T00:41:52.272Z,3.70
2022-10-23T00:44:40.117Z,3.42
2022-10-23T00:47:14.137Z,4.15
2022-10-23T00:49:46.330Z,4.35
2022-10-23T00:52:18.023Z,3.70
2022-10-23T00:54:51.617Z,4.13
2022-10-23T00:57:23.173Z,4.30
2022-10-23T00:59:54.052Z,4.45
2022-10-23T01:02:25.223Z,4.55
2022-10-23T01:04:54.464Z,4.57
2022-10-23T01:07:29.377Z,4.25
2022-10-23T01:10:01.698Z,4.47
2022-10-23T01:12:33.052Z,4.32
2022-10-23T01:15:07.351Z,4.78
2022-10-23T01:17:40.898Z,4.50
2022-10-23T01:20:21.556Z,4.78
2022-10-23T01:23:01.716Z,5.20
2022-10-23T01:25:37.446Z,4.80
2022-10-23T01:28:12.091Z,5.00
2022-10-23T01:30:44.526Z,5.18
2022-10-23T01:33:16.325Z,5.03
2022-10-23T01:35:52.065Z,5.10
2022-10-23T01:38:23.571Z,5.30
2022-10-23T01:40:54.635Z,4.72
2022-10-23T01:43:30.992Z,5.65
2022-10-23T01:46:01.082Z,5.63
2022-10-23T01:48:31.980Z,4.75
2022-10-23T01:51:02.301Z,5.40
2022-10-23T01:53:32.296Z,5.32
2022-10-23T01:56:02.837Z,5.50
2022-10-23T01:58:33.530Z,5.57
2022-10-23T02:01:05.136Z,5.07
2022-10-23T02:03:38.731Z,5.63
2022-10-23T02:06:07.324Z,4.78
2022-10-23T02:08:35.806Z,5.43
2022-10-23T02:11:06.901Z,4.88
2022-10-23T02:13:39.406Z,5.13
2022-10-23T02:16:15.640Z,5.50
2022-10-23T02:18:47.840Z,5.35
2022-10-23T02:21:19.380Z,5.25
2022-10-23T02:23:53.703Z,5.22
2022-10-23T02:26:26.108Z,5.05
2022-10-23T02:29:00.203Z,5.40
2022-10-23T02:31:28.621Z,4.93
2022-10-23T02:33:57.100Z,4.75
2022-10-23T02:36:25.385Z,5.13
2022-10-23T02:38:54.060Z,5.47
2022-10-23T02:41:27.566Z,4.65
2022-10-23T02:44:03.993Z,4.88
2022-10-23T02:46:38.935Z,5.65
2022-10-23T02:49:12.274Z,4.85
2022-10-23T02:51:46.694Z,5.43
2022-10-23T02:54:21.457Z,5.47
2022-10-23T02:56:54.636Z,5.03
2022-10-23T02:59:27.119Z,5.32
2022-10-23T03:01:57.866Z,5.18
2022-10-23T03:04:27.685Z,5.88
2022-10-23T03:06:56.279Z,5.22
2022-10-23T03:09:24.925Z,5.00
2022-10-23T03:11:53.277Z,5.05
2022-10-23T03:14:21.590Z,5.20
2022-10-23T03:16:53.121Z,4.85
2022-10-23T03:19:21.500Z,5.40
2022-10-23T03:21:49.826Z,4.97
2022-10-23T03:24:18.221Z,4.63
2022-10-23T03:26:46.537Z,4.93
2022-10-23T03:29:14.894Z,4.70
2022-10-23T03:31:46.426Z,4.32
2022-10-23T03:34:16.269Z,5.22
2022-10-23T03:36:44.654Z,4.68
2022-10-23T03:39:13.006Z,5.00
2022-10-23T03:41:41.309Z,4.68
2022-10-23T03:44:09.859Z,4.60
2022-10-23T03:46:38.566Z,4.78
2022-10-23T03:49:06.912Z,4.60
2022-10-23T03:51:36.722Z,5.13
2022-10-23T03:54:05.698Z,4.50
2022-10-23T03:56:34.031Z,4.70
2022-10-23T03:59:02.413Z,4.80
2022-10-23T04:01:30.827Z,5.10
2022-10-23T04:03:59.258Z,4.93
2022-10-23T04:06:28.025Z,4.47
2022-10-23T04:09:00.115Z,4.65
2022-10-23T04:11:28.515Z,5.20
2022-10-23T04:13:56.868Z,4.72
2022-10-23T04:16:25.638Z,5.00
2022-10-23T04:18:54.549Z,4.32
2022-10-23T04:21:22.938Z,4.53
2022-10-23T04:23:51.252Z,4.65
2022-10-23T04:26:21.422Z,4.15
2022-10-23T04:28:49.757Z,4.38
2022-10-23T04:31:18.119Z,4.00
2022-10-23T04:33:46.707Z,3.90
2022-10-23T04:36:30.239Z,4.20
2022-10-23T04:39:04.052Z,4.28
2022-10-23T04:41:33.745Z,3.95
2022-10-23T04:44:02.444Z,3.97
2022-10-23T04:46:30.812Z,4.18
2022-10-23T04:48:59.162Z,4.07
2022-10-23T04:51:48.015Z,3.72
2022-10-23T04:54:45.313Z,3.97
2022-10-23T04:57:29.986Z,3.80
2022-10-23T05:00:09.359Z,3.83
2022-10-23T05:02:45.715Z,4.05
2022-10-23T05:05:16.387Z,4.68
2022-10-23T05:08:02.492Z,3.95
2022-10-23T05:10:39.775Z,3.38
2022-10-23T05:13:19.570Z,3.70
2022-10-23T05:15:49.002Z,4.20
2022-10-23T05:18:22.013Z,4.10
2022-10-23T05:20:52.007Z,3.50
2022-10-23T05:23:22.060Z,3.47
2022-10-23T05:25:57.141Z,3.55
2022-10-23T05:28:26.879Z,3.60
2022-10-23T05:30:55.279Z,3.85
2022-10-23T05:33:28.041Z,3.85
2022-10-23T05:35:56.559Z,3.63
2022-10-23T05:38:25.394Z,4.53
2022-10-23T05:40:54.186Z,4.00
2022-10-23T05:43:25.968Z,4.25
2022-10-23T05:46:05.694Z,3.72
2022-10-23T05:48:35.270Z,4.00
2022-10-23T05:51:11.918Z,3.97
2022-10-23T05:54:09.555Z,4.40
2022-10-23T05:56:58.119Z,3.83
2022-10-23T05:59:45.231Z,3.95
2022-10-23T06:02:24.226Z,3.22
2022-10-23T06:05:02.096Z,3.95
2022-10-23T06:07:36.383Z,3.95
2022-10-23T06:10:07.878Z,3.75
2022-10-23T06:12:41.035Z,3.80
2022-10-23T06:15:12.027Z,3.80
2022-10-23T06:18:03.163Z,4.00
2022-10-23T06:20:37.009Z,4.03
2022-10-23T06:23:11.401Z,3.95
2022-10-23T06:26:09.621Z,3.88
2022-10-23T06:29:00.528Z,4.00
2022-10-23T06:31:29.528Z,3.65
2022-10-23T06:34:00.967Z,3.75
2022-10-23T06:36:31.248Z,4.20
2022-10-23T06:39:21.166Z,3.92
2022-10-23T06:42:05.443Z,3.47
2022-10-23T06:44:53.743Z,3.78
2022-10-23T06:47:51.458Z,3.88
2022-10-23T06:50:59.562Z,4.00
2022-10-23T06:53:37.352Z,3.63
2022-10-23T06:56:13.477Z,3.65
2022-10-23T06:58:42.442Z,3.83
2022-10-23T07:01:17.617Z,3.88
2022-10-23T07:03:46.739Z,3.70
2022-10-23T07:06:18.626Z,3.58
2022-10-23T07:08:47.263Z,3.85
2022-10-23T07:11:38.656Z,3.63
2022-10-23T07:14:07.353Z,3.65
2022-10-23T07:16:35.780Z,3.25
2022-10-23T07:19:04.525Z,4.00
2022-10-23T07:21:54.887Z,3.92
2022-10-23T07:24:36.999Z,3.92
2022-10-23T07:27:09.782Z,3.65
2022-10-23T07:29:38.402Z,3.80
2022-10-23T07:32:08.925Z,3.95
2022-10-23T07:35:06.365Z,4.30
2022-10-23T07:37:37.559Z,4.07
2022-10-23T07:40:06.846Z,3.97
2022-10-23T07:42:42.038Z,3.50
2022-10-23T07:45:11.298Z,3.30
2022-10-23T07:47:42.505Z,3.65
2022-10-23T07:50:14.478Z,4.15
2022-10-23T07:52:45.040Z,3.30
2022-10-23T07:55:15.426Z,4.15
2022-10-23T07:57:54.645Z,3.50
2022-10-23T08:00:56.583Z,4.43
2022-10-23T08:03:32.070Z,4.03
2022-10-23T08:06:01.953Z,4.05
2022-10-23T08:08:32.075Z,3.72
2022-10-23T08:11:04.069Z,3.50
2022-10-23T08:13:42.188Z,3.85
2022-10-23T08:16:11.271Z,3.58
2022-10-23T08:19:02.500Z,3.85
2022-10-23T08:21:31.262Z,3.63
2022-10-23T08:24:01.661Z,3.90
2022-10-23T08:26:31.102Z,3.28
2022-10-23T08:29:00.660Z,3.38
2022-10-23T08:31:29.837Z,3.28
2022-10-23T08:34:13.050Z,3.13
2022-10-23T08:36:42.576Z,3.88
2022-10-23T08:39:12.396Z,3.13
2022-10-23T08:41:49.897Z,3.33
2022-10-23T08:44:22.909Z,3.38
2022-10-23T08:46:53.299Z,3.30
2022-10-23T08:49:44.503Z,3.42
2022-10-23T08:52:16.500Z,3.28
2022-10-23T08:54:50.983Z,3.08
2022-10-23T08:57:20.419Z,3.47
2022-10-23T08:59:50.251Z,3.60
2022-10-23T09:02:20.863Z,3.25
2022-10-23T09:04:50.285Z,3.08
2022-10-23T09:07:23.431Z,3.15
2022-10-23T09:10:03.332Z,3.22
2022-10-23T09:12:32.757Z,3.65
2022-10-23T09:15:05.801Z,3.33
2022-10-23T09:17:35.306Z,3.22
2022-10-23T09:20:09.562Z,3.33
2022-10-23T09:22:38.200Z,3.20
2022-10-23T09:25:12.217Z,3.50
2022-10-23T09:27:42.391Z,3.38
2022-10-23T09:30:11.360Z,2.72
2022-10-23T09:32:40.054Z,3.15
2022-10-23T09:35:08.894Z,3.17
2022-10-23T09:37:37.574Z,3.25
2022-10-23T09:40:19.625Z,3.60
2022-10-23T09:42:52.316Z,3.33
2022-10-23T09:45:24.825Z,3.15
2022-10-23T09:48:05.088Z,3.75
2022-10-23T09:50:33.673Z,3.28
2022-10-23T09:53:02.332Z,3.65
2022-10-23T09:55:32.137Z,3.63
2022-10-23T09:58:00.509Z,3.13
2022-10-23T10:00:29.348Z,3.20
2022-10-23T10:02:58.497Z,3.50
2022-10-23T10:05:44.488Z,3.50
2022-10-23T10:08:22.923Z,3.08
2022-10-23T10:10:53.638Z,3.40
2022-10-23T10:13:33.059Z,3.47
2022-10-23T10:16:05.129Z,3.20
2022-10-23T10:18:37.003Z,3.17
2022-10-23T10:21:10.964Z,2.97
2022-10-23T10:23:43.989Z,3.35
2022-10-23T10:26:18.755Z,3.60
2022-10-23T10:28:54.110Z,3.10
2022-10-23T10:31:27.996Z,2.83
2022-10-23T10:33:59.930Z,3.53
2022-10-23T10:36:38.364Z,3.40
2022-10-23T10:39:11.854Z,3.53
2022-10-23T10:41:51.888Z,3.67
2022-10-23T10:44:31.134Z,3.10
2022-10-23T10:47:00.916Z,3.58
2022-10-23T10:49:37.505Z,3.40
2022-10-23T10:52:24.478Z,3.22
2022-10-23T10:54:56.781Z,3.17
2022-10-23T10:57:30.976Z,2.45
2022-10-23T11:00:01.636Z,2.50
2022-10-23T11:02:31.083Z,2.13
2022-10-23T11:05:04.659Z,2.10
2022-10-23T11:07:36.418Z,2.60
2022-10-23T11:10:06.176Z,2.05
2022-10-23T11:12:35.932Z,2.30
2022-10-23T11:15:05.087Z,2.60
2022-10-23T11:17:37.509Z,3.20
2022-10-23T11:20:09.484Z,3.20
2022-10-23T11:22:39.175Z,3.08
2022-10-23T11:25:19.269Z,3.30
2022-10-23T11:28:03.322Z,3.75
2022-10-23T11:30:37.802Z,3.55
2022-10-23T11:33:14.528Z,3.80
2022-10-23T11:35:50.297Z,3.50
2022-10-23T11:38:19.525Z,3.78
2022-10-23T11:43:30.907Z,3.92
2022-10-23T11:45:59.697Z,3.58
2022-10-23T11:48:38.713Z,3.72
2022-10-23T11:51:07.652Z,3.28
2022-10-23T11:53:41.676Z,3.35
2022-10-23T11:56:26.925Z,2.92
2022-10-23T11:58:58.604Z,3.15
2022-10-23T12:01:29.940Z,4.00
2022-10-23T12:04:00.356Z,3.50
2022-10-23T12:06:31.501Z,3.05
2022-10-23T12:09:01.601Z,3.08
2022-10-23T12:11:51.319Z,3.38
2022-10-23T12:14:34.464Z,3.05
2022-10-23T12:17:03.295Z,2.90
2022-10-23T12:19:32.760Z,2.55
2022-10-23T12:22:02.910Z,2.15
2022-10-23T12:24:39.942Z,2.35
2022-10-23T12:27:14.843Z,2.22
2022-10-23T12:29:51.804Z,1.90
2022-10-23T12:32:31.831Z,2.20
2022-10-23T12:35:10.386Z,2.10
2022-10-23T12:37:55.037Z,2.00
2022-10-23T12:40:29.674Z,2.20
2022-10-23T12:42:59.225Z,2.10
2022-10-23T12:45:30.559Z,2.35
2022-10-23T12:47:58.995Z,2.33
2022-10-23T12:50:28.597Z,2.15
2022-10-23T12:52:57.734Z,1.85
2022-10-23T12:55:29.739Z,1.83
2022-10-23T12:58:00.515Z,1.95
2022-10-23T13:00:31.045Z,1.95
2022-10-23T13:03:00.281Z,1.80
2022-10-23T13:05:29.294Z,1.88
2022-10-23T13:07:59.563Z,1.90
2022-10-23T13:10:41.178Z,1.88
2022-10-23T13:13:13.409Z,2.17
2022-10-23T13:15:43.923Z,1.90
2022-10-23T13:18:14.076Z,2.00
2022-10-23T13:20:44.303Z,2.05
2022-10-23T13:23:14.054Z,1.92
2022-10-23T13:25:42.703Z,2.33
2022-10-23T13:28:16.579Z,2.10
2022-10-23T13:30:47.042Z,1.98
2022-10-23T13:33:16.111Z,1.85
2022-10-23T13:35:44.486Z,1.77
2022-10-23T13:38:13.122Z,1.98
2022-10-23T13:40:41.579Z,2.10
2022-10-23T13:43:15.035Z,2.13
2022-10-23T13:45:43.408Z,2.13
2022-10-23T13:48:16.121Z,1.95
2022-10-23T13:50:44.499Z,2.20
2022-10-23T13:53:13.668Z,1.90
2022-10-23T13:55:42.565Z,2.25
2022-10-23T13:58:11.401Z,2.75
2022-10-23T14:00:40.111Z,2.15
2022-10-23T14:03:08.482Z,2.38
2022-10-23T14:05:38.208Z,2.20
2022-10-23T14:08:06.659Z,2.55
2022-10-23T14:10:35.047Z,2.55
2022-10-23T14:13:03.422Z,2.35
2022-10-23T14:15:31.886Z,2.03
2022-10-23T14:18:03.433Z,2.30
2022-10-23T14:20:34.311Z,2.17
2022-10-23T14:23:04.015Z,1.90
2022-10-23T14:25:32.387Z,2.22
2022-10-23T14:28:00.759Z,2.17
2022-10-23T14:30:29.200Z,1.80
2022-10-23T14:32:57.624Z,2.10
2022-10-23T14:35:25.986Z,2.25
2022-10-23T14:37:54.395Z,2.08
2022-10-23T14:40:24.124Z,1.95
2022-10-23T14:42:52.500Z,2.30
2022-10-23T14:45:20.923Z,2.10
2022-10-23T14:47:49.306Z,2.28
2022-10-23T14:50:17.728Z,2.13
2022-10-23T14:52:46.437Z,1.95
2022-10-23T14:55:14.845Z,2.25
2022-10-23T14:57:44.966Z,2.00
2022-10-23T15:00:14.212Z,2.20
2022-10-23T15:02:42.860Z,2.20
2022-10-23T15:05:11.381Z,2.15
2022-10-23T15:07:40.414Z,1.95
2022-10-23T15:10:09.549Z,2.45
2022-10-23T15:12:38.061Z,2.47
2022-10-23T15:15:08.905Z,1.73
2022-10-23T15:17:39.051Z,2.05
2022-10-23T15:20:08.743Z,2.03
2022-10-23T15:22:37.141Z,2.47
2022-10-23T15:25:05.802Z,2.47
2022-10-23T15:27:34.146Z,2.13
2022-10-23T15:30:02.624Z,2.42
2022-10-23T15:32:32.477Z,2.33
2022-10-23T15:35:00.851Z,2.20
2022-10-23T15:37:29.211Z,2.30
2022-10-23T15:40:01.327Z,2.17
2022-10-23T15:42:31.025Z,3.00
2022-10-23T15:44:59.389Z,2.25
2022-10-23T15:47:27.743Z,2.60
2022-10-23T15:49:57.541Z,2.92
2022-10-23T15:52:25.925Z,2.92
2022-10-23T15:54:54.348Z,3.08
2022-10-23T15:57:22.742Z,2.78
2022-10-23T15:59:51.794Z,3.13
2022-10-23T16:02:20.921Z,2.60
2022-10-23T16:04:49.397Z,2.45
2022-10-23T16:07:19.125Z,3.05
2022-10-23T16:09:47.849Z,3.08
2022-10-23T16:12:17.105Z,3.40
2022-10-23T16:14:45.566Z,2.60
2022-10-23T16:19:47.495Z,2.80
2022-10-23T16:22:17.409Z,2.90
2022-10-23T16:24:47.125Z,2.47
2022-10-23T16:27:15.547Z,2.47
2022-10-23T16:29:44.286Z,2.55
2022-10-23T16:32:12.655Z,2.65
2022-10-23T16:34:41.085Z,2.20
2022-10-23T16:37:09.466Z,2.67
2022-10-23T16:39:53.575Z,2.30
2022-10-23T16:42:54.606Z,2.00
2022-10-23T16:45:48.903Z,2.05
2022-10-23T16:48:17.218Z,2.60
2022-10-23T16:50:45.553Z,2.33
2022-10-23T16:53:13.863Z,2.78
2022-10-23T16:55:43.509Z,2.33
2022-10-23T16:58:11.918Z,2.70
2022-10-23T17:00:40.264Z,2.88
2022-10-23T17:03:09.570Z,3.22
2022-10-23T17:05:37.923Z,3.03
2022-10-23T17:08:06.371Z,3.97
2022-10-23T17:10:34.808Z,3.97
2022-10-23T17:13:04.529Z,4.53
2022-10-23T17:15:32.983Z,5.43
2022-10-23T17:18:01.457Z,4.43
2022-10-23T17:20:29.832Z,4.53
2022-10-23T17:22:58.229Z,3.90
2022-10-23T17:25:27.073Z,4.15
2022-10-23T17:27:55.445Z,3.30
2022-10-23T17:30:25.181Z,3.90
2022-10-23T17:32:55.906Z,3.72
2022-10-23T17:35:25.415Z,4.00
2022-10-23T17:37:55.386Z,3.90
2022-10-23T17:40:25.192Z,4.22
2022-10-23T17:42:53.666Z,4.32
2022-10-23T17:45:21.966Z,4.18
2022-10-23T17:47:53.238Z,5.03
2022-10-23T17:50:21.542Z,4.45
2022-10-23T17:52:49.856Z,7.28
2022-10-23T17:55:18.881Z,5.57
2022-10-23T17:57:47.195Z,5.32
2022-10-23T18:00:16.065Z,4.35
2022-10-23T18:02:44.433Z,3.65
2022-10-23T18:05:14.284Z,3.97
2022-10-23T18:07:42.900Z,3.30
2022-10-23T18:10:11.890Z,4.82
2022-10-23T18:12:40.198Z,5.40
2022-10-23T18:15:09.185Z,4.40
2022-10-23T18:17:37.579Z,3.70
2022-10-23T18:20:06.345Z,3.20
2022-10-23T18:22:36.111Z,3.50
2022-10-23T18:25:04.946Z,3.55
2022-10-23T18:27:33.246Z,3.95
2022-10-23T18:30:01.775Z,3.25
2022-10-23T18:32:30.517Z,3.22
2022-10-23T18:34:58.889Z,2.88
2022-10-23T18:37:31.780Z,3.33
2022-10-23T18:40:02.922Z,3.50
2022-10-23T18:42:31.231Z,3.60
2022-10-23T18:44:59.771Z,3.85
2022-10-23T18:47:28.830Z,3.50
2022-10-23T18:49:57.162Z,3.60
2022-10-23T18:52:25.488Z,3.50
2022-10-23T18:54:53.859Z,3.53
2022-10-23T18:57:23.567Z,3.67
2022-10-23T18:59:51.897Z,3.53
2022-10-23T19:02:20.326Z,3.85
2022-10-23T19:04:48.768Z,3.83
2022-10-23T19:07:17.140Z,4.07
2022-10-23T19:09:45.460Z,3.70
2022-10-23T19:14:43.395Z,3.60
2022-10-23T19:17:15.173Z,4.25
2022-10-23T19:19:44.803Z,3.97
2022-10-23T19:22:13.853Z,3.70
2022-10-23T19:24:44.932Z,3.78
2022-10-23T19:27:13.240Z,4.68
2022-10-23T19:29:44.236Z,4.45
2022-10-23T19:32:13.976Z,4.20
2022-10-23T19:34:42.347Z,4.32
2022-10-23T19:37:10.671Z,3.92
2022-10-23T19:39:39.000Z,4.38
2022-10-23T19:42:08.585Z,3.95
2022-10-23T19:44:36.925Z,3.75
2022-10-23T19:47:05.233Z,4.30
2022-10-23T19:49:34.876Z,3.97
2022-10-23T19:52:03.249Z,4.15
2022-10-23T19:54:32.290Z,4.10
2022-10-23T19:57:02.346Z,4.07
2022-10-23T19:59:30.822Z,3.67
2022-10-23T20:01:59.280Z,4.30
2022-10-23T20:04:28.838Z,4.15
2022-10-23T20:06:58.923Z,4.45
2022-10-23T20:09:27.340Z,3.90
2022-10-23T20:11:55.973Z,3.83
2022-10-23T20:14:24.536Z,4.13
2022-10-23T20:16:55.928Z,4.50
2022-10-23T20:19:24.600Z,4.25
2022-10-23T20:21:53.394Z,3.88
2022-10-23T20:24:23.653Z,4.40
2022-10-23T20:26:53.899Z,4.28
2022-10-23T20:29:22.835Z,4.28
2022-10-23T20:31:52.497Z,4.60
2022-10-23T20:34:21.330Z,4.40
2022-10-23T20:36:51.048Z,4.93
2022-10-23T20:39:20.607Z,4.63
2022-10-23T20:41:50.253Z,4.75
2022-10-23T20:44:19.658Z,5.25
2022-10-23T20:46:49.023Z,4.93
2022-10-23T20:49:18.256Z,5.35
2022-10-23T20:51:47.484Z,5.60
2022-10-23T20:54:16.015Z,6.15
2022-10-23T20:56:44.604Z,5.75
2022-10-23T20:59:16.118Z,5.35
2022-10-23T21:01:45.643Z,5.40
2022-10-23T21:04:14.801Z,5.47
2022-10-23T21:09:21.021Z,5.88
2022-10-23T21:11:49.792Z,5.40
2022-10-23T21:14:19.799Z,5.72
2022-10-23T21:16:48.418Z,5.57
2022-10-23T21:19:17.688Z,5.60
2022-10-23T21:21:46.504Z,5.47
2022-10-23T21:24:16.171Z,4.78
2022-10-23T21:26:45.146Z,5.10
2022-10-23T21:29:18.622Z,6.22
2022-10-23T21:31:54.172Z,5.53
2022-10-23T21:34:23.480Z,5.50
2022-10-23T21:39:40.955Z,5.15
2022-10-23T21:42:09.665Z,5.18
2022-10-23T21:44:39.736Z,5.18
2022-10-23T21:47:10.619Z,4.50
2022-10-23T21:49:39.167Z,4.90
2022-10-23T21:52:07.612Z,4.97
2022-10-23T21:54:35.945Z,3.92
2022-10-23T21:57:04.594Z,4.60
2022-10-23T21:59:35.918Z,4.72
2022-10-23T22:02:05.291Z,4.60
2022-10-23T22:04:35.159Z,4.25
2022-10-23T22:07:03.680Z,4.25
2022-10-23T22:09:32.416Z,4.65
2022-10-23T22:12:02.006Z,4.30
2022-10-23T22:14:30.384Z,4.85
2022-10-23T22:16:58.977Z,4.28
2022-10-23T22:19:27.843Z,4.45
2022-10-23T22:21:58.484Z,4.55
2022-10-23T22:24:27.019Z,4.43
2022-10-23T22:26:56.297Z,4.30
2022-10-23T22:29:26.105Z,4.30
2022-10-23T22:31:54.430Z,4.63
2022-10-23T22:34:34.838Z,4.03
2022-10-23T22:37:13.647Z,4.63
2022-10-23T22:39:42.105Z,5.00
2022-10-23T22:42:11.963Z,5.10
2022-10-23T22:44:41.774Z,4.40
2022-10-23T22:47:10.277Z,4.97
2022-10-23T22:49:39.320Z,4.70
2022-10-23T22:52:07.620Z,4.90
2022-10-23T22:54:37.687Z,4.40
2022-10-23T22:57:06.012Z,4.47
2022-10-23T22:59:34.363Z,4.30
2022-10-23T23:02:02.750Z,5.00
2022-10-23T23:04:39.158Z,4.93
2022-10-23T23:07:08.225Z,4.55
2022-10-23T23:09:38.880Z,5.20
2022-10-23T23:12:07.768Z,4.75
2022-10-23T23:14:36.343Z,4.43
2022-10-23T23:17:04.926Z,4.70
2022-10-23T23:19:33.353Z,4.45
2022-10-23T23:22:02.134Z,5.13
2022-10-23T23:24:30.492Z,4.75
2022-10-23T23:27:00.234Z,4.70
2022-10-23T23:29:29.506Z,4.75
2022-10-23T23:31:57.839Z,4.78
2022-10-23T23:34:26.177Z,4.80
2022-10-23T23:36:54.476Z,4.55
2022-10-23T23:39:22.784Z,4.72
2022-10-23T23:41:51.104Z,4.13
2022-10-23T23:44:20.796Z,5.45
2022-10-23T23:46:49.108Z,4.13
2022-10-23T23:49:17.416Z,5.57
2022-10-23T23:51:45.740Z,5.75
2022-10-23T23:54:14.354Z,4.97
2022-10-23T23:56:42.666Z,4.57
2022-10-23T23:59:10.999Z,4.50
